LiveATC.Net - Listen to live air traffic control over the Internet!


ICAO: ESMS  IATA: MMX   Airport: Malmo Airport
City: Svedala
Country: Sweden   Continent: Europe
ESMS METAR Weather: ESMS 111120Z 28010KT 9000 BR BKN006 07/06 Q1005
ESMS Flight Activity (FlightAware)
ESMS Twr/Sweden Control
Feed Status: DOWN
Last heard on: 2016-10-23 10:03:03 (49 days 1 hours 52 minutes ago)
ESMS Twr/Sweden Control Audio Archives
FacilityFrequency
Malmo Tower118.800
Sweden Control (South)134.975


NOTICE

Unauthorized use prohibited. See LiveATC.net Terms of Service


Find LiveATC Audio Streams


Airport/ARTCC Code

Frequency
(e.g., 124.400, 128.75)
Site-wide search

Browse LiveATC Feeds
LiveATC Coverage Map
Top 50 LiveATC Feeds
Bad Weather Areas

LiveATC FAQ
Offer a LiveATC Feed
Contact LiveATC.net
Press Inquiries

LiveATC on iPhone
LiveATC on Android

Windows Phone
Windows 8/10

LiveATC Mobile
(Mobile browser)

ATC Audio Archives
Interesting Recordings

LiveATC Forums


Home Page
About LiveATC.net
Make a Donation
LiveATC Store

Terms of Use
Privacy Policy

Canadian Air Freqs

AIRMETs/SIGMETs

FAA Airport Status
Nat'l Airspace Status
Arrival Demand Charts


Server Software By:
Icecast.org
Liquidsoap